Time;durP1;ratioP1;P1;durP2;ratioP2;P2;SDS_P1;SDS_P2;PMS_P1;PMS_P2;Temp;Humidity;BMP_temperature;BMP_pressure;BME280_temperature;BME280_humidity;BME280_pressure;Samples;Min_cycle;Max_cycle;Signal;HPM_P1;HPM_P2
2023/10/16 03:57:38;;;;;;;;;;;;;;;;;;5613281;22;19925;-75
2023/10/16 04:00:14;;;;;;;;;;;;;;;;;;5014918;28;20026;-75
2023/10/16 04:02:41;;;;;;;;;;;;;;;;;;5015154;28;19956;-74
2023/10/16 04:05:27;;;;;;;;;;;;;;;;;;5015083;28;19937;-74
2023/10/16 04:07:54;;;;;;;;;;;;;;;;;;5015463;28;20367;-75
2023/10/16 04:10:28;;;;;;;;;;;;;;;;;;5015431;28;19933;-74
2023/10/16 04:12:55;;;;;;;;;;;;;;;;;;5014895;28;20012;-75
2023/10/16 04:15:40;;;;;;;;;;;;;;;;;;5014890;28;19991;-75
2023/10/16 04:18:26;;;;;;;;;;;;;;;;;;5014421;28;19972;-73
2023/10/16 04:20:56;;;;;;;;;;;;;;;;;;5015719;28;19921;-73
2023/10/16 04:23:29;;;;;;;;;;;;;;;;;;5014299;28;20396;-73
2023/10/16 04:29:20;;;;;;;;;;;;;;;;;;5013895;28;19971;-75
2023/10/16 04:31:43;;;;;;;;;;;;;;;;;;5014220;28;20456;-75
2023/10/16 04:34:24;;;;;;;;;;;;;;;;;;5015108;28;19928;-74
2023/10/16 04:36:52;;;;;;;;;;;;;;;;;;5015145;28;19930;-75
2023/10/16 04:40:46;;;;;;;;;;;;;;;;;;5014463;28;19921;-74
2023/10/16 04:47:48;;;;;;;;;;;;;;;;;;5014078;28;19926;-71
2023/10/16 04:50:15;;;;;;;;;;;;;;;;;;5014319;28;20374;-73
2023/10/16 04:58:38;;;;;;;;;;;;;;;;;;5013865;28;19921;-73
2023/10/16 05:01:22;;;;;;;;;;;;;;;;;;5015046;28;19932;-74
2023/10/16 05:04:24;;;;;;;;;;;;;;;;;;5014888;28;20008;-70
2023/10/16 05:06:56;;;;;;;;;;;;;;;;;;5013523;28;20298;-71
2023/10/16 06:15:31;;;;;;;;;;;;;;;;;;5016661;28;19968;-73
2023/10/16 06:18:04;;;;;;;;;;;;;;;;;;5016727;28;20364;-73
2023/10/16 06:20:31;;;;;;;;;;;;;;;;;;5017073;28;19973;-73
2023/10/16 06:22:58;;;;;;;;;;;;;;;;;;5016881;28;20048;-73
2023/10/16 06:25:28;;;;;;;;;;;;;;;;;;5016915;28;19925;-73
2023/10/16 06:27:55;;;;;;;;;;;;;;;;;;5016887;28;19932;-73
2023/10/16 06:30:23;;;;;;;;;;;;;;;;;;5016599;28;19933;-73
2023/10/16 06:32:52;;;;;;;;;;;;;;;;;;5017188;28;20276;-73
2023/10/16 06:35:19;;;;;;;;;;;;;;;;;;5017645;28;20029;-72
2023/10/16 06:37:51;;;;;;;;;;;;;;;;;;5018020;28;20283;-74
2023/10/16 06:40:24;;;;;;;;;;;;;;;;;;5017969;28;19929;-73
2023/10/16 06:42:54;;;;;;;;;;;;;;;;;;5018483;28;19929;-72
2023/10/16 06:45:40;;;;;;;;;;;;;;;;;;5017865;28;19932;-72
2023/10/16 06:48:08;;;;;;;;;;;;;;;;;;5017428;28;20264;-73
2023/10/16 06:50:42;;;;;;;;;;;;;;;;;;5017300;28;19933;-73
2023/10/16 06:53:08;;;;;;;;;;;;;;;;;;5017492;28;19949;-72
2023/10/16 06:55:35;;;;;;;;;;;;;;;;;;5016078;28;19933;-74
2023/10/16 06:58:02;;;;;;;;;;;;;;;;;;5015889;28;19926;-74
2023/10/16 07:00:32;;;;;;;;;;;;;;;;;;5016403;28;19936;-74
2023/10/16 07:03:01;;;;;;;;;;;;;;;;;;5016156;28;19929;-73
2023/10/16 07:05:42;;;;;;;;;;;;;;;;;;5015995;28;19933;-73
2023/10/16 07:08:09;;;;;;;;;;;;;;;;;;5015746;28;19940;-73
2023/10/16 07:10:37;;;;;;;;;;;;;;;;;;5015919;28;19925;-73
2023/10/16 07:13:07;;;;;;;;;;;;;;;;;;5015895;28;19926;-73
2023/10/16 07:15:34;;;;;;;;;;;;;;;;;;5015979;28;19925;-73
2023/10/16 07:18:05;;;;;;;;;;;;;;;;;;5015669;28;19932;-73
2023/10/16 07:20:33;;;;;;;;;;;;;;;;;;5015721;28;19992;-73
2023/10/16 07:23:00;;;;;;;;;;;;;;;;;;5015656;28;19925;-73
2023/10/16 07:25:37;;;;;;;;;;;;;;;;;;5015602;28;19933;-73
2023/10/16 07:28:08;;;;;;;;;;;;;;;;;;5015180;28;20394;-73
2023/10/16 07:30:35;;;;;;;;;;;;;;;;;;5015484;28;19926;-73
2023/10/16 07:33:02;;;;;;;;;;;;;;;;;;5015447;28;19926;-73
2023/10/16 07:35:29;;;;;;;;;;;;;;;;;;5015394;28;19930;-74
2023/10/16 07:37:58;;;;;;;;;;;;;;;;;;5015788;28;19932;-74
2023/10/16 07:40:25;;;;;;;;;;;;;;;;;;5015380;28;19933;-73
2023/10/16 07:42:52;;;;;;;;;;;;;;;;;;5015615;28;19926;-74
2023/10/16 07:45:19;;;;;;;;;;;;;;;;;;5015216;28;19935;-73
2023/10/16 07:47:48;;;;;;;;;;;;;;;;;;5015623;28;20001;-73
2023/10/16 07:50:15;;;;;;;;;;;;;;;;;;5015269;28;19965;-73
2023/10/16 07:52:43;;;;;;;;;;;;;;;;;;5015092;28;20355;-74
2023/10/16 07:55:18;;;;;;;;;;;;;;;;;;5014314;28;21268;-73
2023/10/16 07:57:45;;;;;;;;;;;;;;;;;;5015016;28;19991;-74
2023/10/16 08:00:14;;;;;;;;;;;;;;;;;;5014580;28;19932;-74
2023/10/16 08:02:45;;;;;;;;;;;;;;;;;;5014762;28;19933;-74
2023/10/16 08:05:15;;;;;;;;;;;;;;;;;;5014914;28;19926;-73
2023/10/16 08:07:47;;;;;;;;;;;;;;;;;;5014819;28;19926;-73
2023/10/16 08:13:11;;;;;;;;;;;;;;;;;;5004534;28;19928;-72
2023/10/16 08:15:38;;;;;;;;;;;;;;;;;;5014549;28;19976;-74
2023/10/16 08:18:07;;;;;;;;;;;;;;;;;;5014483;28;19926;-73
2023/10/16 08:20:49;;;;;;;;;;;;;;;;;;5014354;28;20361;-73
2023/10/16 08:23:16;;;;;;;;;;;;;;;;;;5014986;28;20016;-73
2023/10/16 08:25:42;;;;;;;;;;;;;;;;;;5017943;28;19925;-73
2023/10/16 08:28:24;;;;;;;;;;;;;;;;;;5017706;28;19929;-72
2023/10/16 08:30:53;;;;;;;;;;;;;;;;;;5017307;28;19934;-72
2023/10/16 08:33:28;;;;;;;;;;;;;;;;;;5014405;28;19948;-72
2023/10/16 08:35:58;;;;;;;;;;;;;;;;;;5014596;28;19925;-73
2023/10/16 08:38:26;;;;;;;;;;;;;;;;;;5014596;28;19926;-72
2023/10/16 08:40:57;;;;;;;;;;;;;;;;;;5014922;28;19925;-73
2023/10/16 08:43:39;;;;;;;;;;;;;;;;;;5015002;28;20015;-73
2023/10/16 08:46:10;;;;;;;;;;;;;;;;;;5015030;28;19931;-73
2023/10/16 08:48:37;;;;;;;;;;;;;;;;;;5014253;28;19926;-74
2023/10/16 08:51:08;;;;;;;;;;;;;;;;;;5015166;28;19926;-74
2023/10/16 08:53:37;;;;;;;;;;;;;;;;;;5014620;28;19932;-73
2023/10/16 08:56:08;;;;;;;;;;;;;;;;;;5014800;28;19996;-73
2023/10/16 08:58:35;;;;;;;;;;;;;;;;;;5014609;28;19979;-73
2023/10/16 09:01:07;;;;;;;;;;;;;;;;;;5014847;28;19972;-73
2023/10/16 09:03:34;;;;;;;;;;;;;;;;;;5014818;28;19926;-73
2023/10/16 09:06:04;;;;;;;;;;;;;;;;;;5014356;28;20367;-73
2023/10/16 09:08:32;;;;;;;;;;;;;;;;;;5014447;28;19925;-73
2023/10/16 09:11:05;;;;;;;;;;;;;;;;;;5014674;28;19979;-73
2023/10/16 09:13:35;;;;;;;;;;;;;;;;;;5018320;28;20380;-72
2023/10/16 09:16:02;;;;;;;;;;;;;;;;;;5018098;28;20275;-73
2023/10/16 09:18:31;;;;;;;;;;;;;;;;;;5019067;28;19933;-73
2023/10/16 09:21:00;;;;;;;;;;;;;;;;;;5020998;28;19948;-72
2023/10/16 09:23:27;;;;;;;;;;;;;;;;;;5020237;28;19925;-72
2023/10/16 09:25:56;;;;;;;;;;;;;;;;;;5018907;28;20387;-74
2023/10/16 09:28:23;;;;;;;;;;;;;;;;;;5018867;28;20293;-73
2023/10/16 09:30:50;;;;;;;;;;;;;;;;;;5018865;28;19930;-72
2023/10/16 09:33:18;;;;;;;;;;;;;;;;;;5018079;28;19926;-72
2023/10/16 09:35:47;;;;;;;;;;;;;;;;;;5018495;28;19957;-73
2023/10/16 09:38:17;;;;;;;;;;;;;;;;;;5018755;28;19932;-73
2023/10/16 09:40:45;;;;;;;;;;;;;;;;;;5018483;28;20387;-73
2023/10/16 09:43:24;;;;;;;;;;;;;;;;;;5020068;28;19932;-73
2023/10/16 09:46:16;;;;;;;;;;;;;;;;;;5020629;28;19936;-73
2023/10/16 09:48:37;;;;;;;;;;;;;;;;;;5018992;28;19926;-73
2023/10/16 09:51:05;;;;;;;;;;;;;;;;;;5019537;28;20259;-73
2023/10/16 09:53:31;;;;;;;;;;;;;;;;;;5018751;28;19932;-73
2023/10/16 09:55:58;;;;;;;;;;;;;;;;;;5017729;28;19925;-74
2023/10/16 09:58:31;;;;;;;;;;;;;;;;;;5017356;28;19969;-73
2023/10/16 10:01:06;;;;;;;;;;;;;;;;;;5017389;28;19949;-75
2023/10/16 10:03:33;;;;;;;;;;;;;;;;;;5017706;28;19988;-74
2023/10/16 10:06:08;;;;;;;;;;;;;;;;;;5017211;28;19925;-74
2023/10/16 10:08:51;;;;;;;;;;;;;;;;;;5016950;28;19925;-73
2023/10/16 10:11:17;;;;;;;;;;;;;;;;;;5040310;23;19929;-69
2023/10/16 10:13:45;;;;;;;;;;;;;;;;;;5016691;28;20449;-69
2023/10/16 10:16:12;;;;;;;;;;;;;;;;;;5016917;28;19933;-69
2023/10/16 10:18:43;;;;;;;;;;;;;;;;;;5016916;28;19925;-69
2023/10/16 10:21:12;;;;;;;;;;;;;;;;;;5016817;28;19975;-69
2023/10/16 10:23:39;;;;;;;;;;;;;;;;;;5015895;28;19953;-69
2023/10/16 10:26:07;;;;;;;;;;;;;;;;;;5016578;28;19926;-69
2023/10/16 10:28:40;;;;;;;;;;;;;;;;;;5016864;28;19926;-70
2023/10/16 10:31:07;;;;;;;;;;;;;;;;;;5016744;28;19926;-70
2023/10/16 10:33:36;;;;;;;;;;;;;;;;;;5016806;28;19925;-69
2023/10/16 10:36:03;;;;;;;;;;;;;;;;;;5016559;28;19926;-69
2023/10/16 10:38:30;;;;;;;;;;;;;;;;;;5016529;28;19988;-69
2023/10/16 10:40:57;;;;;;;;;;;;;;;;;;5016714;28;19925;-70
2023/10/16 10:43:24;;;;;;;;;;;;;;;;;;5016445;28;19932;-69
2023/10/16 10:45:51;;;;;;;;;;;;;;;;;;5016593;28;19929;-69
2023/10/16 10:48:24;;;;;;;;;;;;;;;;;;5016708;28;19929;-68
2023/10/16 10:50:51;;;;;;;;;;;;;;;;;;5016511;28;19973;-68
2023/10/16 10:53:20;;;;;;;;;;;;;;;;;;5016010;28;20441;-68
2023/10/16 10:55:47;;;;;;;;;;;;;;;;;;5016212;28;19925;-68
2023/10/16 10:58:14;;;;;;;;;;;;;;;;;;5016155;28;19949;-68
2023/10/16 11:00:49;;;;;;;;;;;;;;;;;;5016130;28;19925;-68
2023/10/16 11:03:41;;;;;;;;;;;;;;;;;;5015813;28;20276;-68
2023/10/16 11:06:15;;;;;;;;;;;;;;;;;;5016131;28;19933;-69
2023/10/16 11:08:42;;;;;;;;;;;;;;;;;;5015900;28;19926;-69
2023/10/16 11:11:10;;;;;;;;;;;;;;;;;;5015621;28;19929;-69
2023/10/16 11:13:37;;;;;;;;;;;;;;;;;;5015861;28;19932;-69
2023/10/16 11:16:07;;;;;;;;;;;;;;;;;;5015830;28;19925;-69
2023/10/16 11:18:37;;;;;;;;;;;;;;;;;;5015946;28;19926;-69
2023/10/16 11:21:06;;;;;;;;;;;;;;;;;;5015638;28;19932;-69
2023/10/16 11:23:38;;;;;;;;;;;;;;;;;;5015455;28;20279;-69
2023/10/16 11:26:05;;;;;;;;;;;;;;;;;;5015714;28;19925;-69
2023/10/16 11:28:32;;;;;;;;;;;;;;;;;;5015155;28;20334;-69
2023/10/16 11:30:59;;;;;;;;;;;;;;;;;;5015440;28;20016;-69
2023/10/16 11:33:26;;;;;;;;;;;;;;;;;;5015538;28;19926;-69
2023/10/16 11:35:54;;;;;;;;;;;;;;;;;;5015018;28;20299;-69
2023/10/16 11:38:28;;;;;;;;;;;;;;;;;;5015047;28;20342;-69
2023/10/16 11:40:55;;;;;;;;;;;;;;;;;;5015311;28;19925;-69
2023/10/16 11:43:22;;;;;;;;;;;;;;;;;;5015297;28;19929;-69
2023/10/16 11:45:53;;;;;;;;;;;;;;;;;;5015195;28;19930;-69
2023/10/16 11:48:28;;;;;;;;;;;;;;;;;;5015366;28;19925;-69
2023/10/16 11:51:05;;;;;;;;;;;;;;;;;;5015178;28;19933;-69
2023/10/16 11:53:34;;;;;;;;;;;;;;;;;;5015120;28;19972;-70
2023/10/16 11:56:01;;;;;;;;;;;;;;;;;;5015930;28;19933;-70
2023/10/16 11:58:28;;;;;;;;;;;;;;;;;;5014990;28;19932;-70
2023/10/16 12:00:57;;;;;;;;;;;;;;;;;;5015018;28;20295;-70
2023/10/16 12:03:24;;;;;;;;;;;;;;;;;;5014754;28;20379;-70
2023/10/16 12:05:51;;;;;;;;;;;;;;;;;;5014730;28;20394;-69
2023/10/16 12:08:21;;;;;;;;;;;;;;;;;;5014837;28;19933;-71
2023/10/16 12:10:50;;;;;;;;;;;;;;;;;;5014568;28;19929;-70
2023/10/16 12:13:17;;;;;;;;;;;;;;;;;;5014759;28;19932;-70
2023/10/16 12:15:46;;;;;;;;;;;;;;;;;;5014779;28;19925;-71
2023/10/16 12:18:14;;;;;;;;;;;;;;;;;;5015079;28;20012;-70
2023/10/16 12:20:41;;;;;;;;;;;;;;;;;;5014690;28;19925;-70
2023/10/16 12:23:08;;;;;;;;;;;;;;;;;;5014594;28;19980;-70
2023/10/16 12:25:35;;;;;;;;;;;;;;;;;;5014599;28;19949;-70
2023/10/16 12:28:02;;;;;;;;;;;;;;;;;;5014444;28;20386;-70
2023/10/16 12:30:30;;;;;;;;;;;;;;;;;;5014547;28;19983;-70
2023/10/16 12:32:59;;;;;;;;;;;;;;;;;;5014581;28;20013;-70
2023/10/16 12:35:28;;;;;;;;;;;;;;;;;;5014432;28;20020;-71
2023/10/16 12:37:56;;;;;;;;;;;;;;;;;;5014429;28;19973;-69
2023/10/16 12:40:28;;;;;;;;;;;;;;;;;;5014372;28;19925;-69
2023/10/16 12:42:55;;;;;;;;;;;;;;;;;;5014286;28;20097;-69
2023/10/16 12:45:23;;;;;;;;;;;;;;;;;;5014334;28;20020;-70
2023/10/16 12:47:51;;;;;;;;;;;;;;;;;;5013863;28;19926;-70
2023/10/16 12:50:21;;;;;;;;;;;;;;;;;;5013891;28;20338;-70
2023/10/16 12:52:50;;;;;;;;;;;;;;;;;;5014275;28;19984;-70
2023/10/16 12:55:17;;;;;;;;;;;;;;;;;;5014198;28;19925;-69
2023/10/16 12:57:44;;;;;;;;;;;;;;;;;;5014171;28;19925;-69
2023/10/16 13:00:16;;;;;;;;;;;;;;;;;;5014214;28;19926;-69
2023/10/16 13:02:43;;;;;;;;;;;;;;;;;;5014464;28;19972;-69
2023/10/16 13:05:13;;;;;;;;;;;;;;;;;;5013826;28;19948;-69
2023/10/16 13:07:41;;;;;;;;;;;;;;;;;;5014314;28;19933;-70
2023/10/16 13:10:08;;;;;;;;;;;;;;;;;;5013805;28;19976;-69
2023/10/16 13:12:36;;;;;;;;;;;;;;;;;;5013826;28;19925;-69
2023/10/16 13:15:03;;;;;;;;;;;;;;;;;;5014061;28;19980;-69
2023/10/16 13:17:30;;;;;;;;;;;;;;;;;;5013981;28;19984;-69
2023/10/16 13:19:57;;;;;;;;;;;;;;;;;;5013708;28;19926;-69
2023/10/16 13:22:25;;;;;;;;;;;;;;;;;;5013750;28;19926;-70
2023/10/16 13:24:54;;;;;;;;;;;;;;;;;;5013886;28;19929;-69
2023/10/16 13:27:21;;;;;;;;;;;;;;;;;;5014050;28;19933;-69
2023/10/16 13:29:51;;;;;;;;;;;;;;;;;;5013691;28;19926;-69
2023/10/16 13:32:18;;;;;;;;;;;;;;;;;;5013970;28;19968;-69
2023/10/16 13:34:46;;;;;;;;;;;;;;;;;;5013925;28;20398;-70
2023/10/16 13:37:12;;;;;;;;;;;;;;;;;;5014012;28;19926;-70
2023/10/16 13:39:39;;;;;;;;;;;;;;;;;;5013421;28;19929;-70
2023/10/16 13:42:08;;;;;;;;;;;;;;;;;;5013979;28;19925;-70
2023/10/16 13:44:35;;;;;;;;;;;;;;;;;;5014236;28;19930;-70
2023/10/16 13:47:05;;;;;;;;;;;;;;;;;;5015551;28;19933;-71
2023/10/16 13:49:31;;;;;;;;;;;;;;;;;;5013636;28;19926;-71
2023/10/16 13:51:59;;;;;;;;;;;;;;;;;;5013716;28;19925;-69
2023/10/16 13:54:26;;;;;;;;;;;;;;;;;;5013466;28;20445;-73
2023/10/16 13:56:54;;;;;;;;;;;16.60;99.90;;;;;;5013646;28;19927;-68
2023/10/16 13:59:20;;;;;;;;;;;;;;;;;;5015011;28;19932;-69
2023/10/16 14:01:47;;;;;;;;;;;;;;;;;;5017346;28;19932;-72
2023/10/16 14:04:15;;;;;;;;;;;;;;;;;;5017465;28;19925;-72
2023/10/16 14:06:43;;;;;;;;;;;;;;;;;;5017655;28;20359;-72
2023/10/16 14:09:19;;;;;;;;;;;;;;;;;;5017515;28;19980;-73
2023/10/16 14:11:48;;;;;;;;;;;;;;;;;;5017193;28;20295;-72
2023/10/16 14:14:18;;;;;;;;;;;;;;;;;;5017886;28;19932;-72
2023/10/16 14:16:46;;;;;;;;;;;;;;;;;;5027214;28;19926;-72
2023/10/16 14:19:13;;;;;;;;;;;;;;;;;;5023329;28;19926;-72
2023/10/16 14:21:40;;;;;;;;;;;;;;;;;;5023542;28;19972;-72
2023/10/16 14:24:07;;;;;;;;;;;;;;;;;;5025744;28;20271;-71
2023/10/16 14:26:36;;;;;;;;;;;;;;;;;;5020235;28;19933;-72
2023/10/16 14:29:03;;;;;;;;;;;;;;;;;;5017667;28;20016;-72
2023/10/16 14:31:33;;;;;;;;;;;;;;;;;;5017430;28;20271;-72
2023/10/16 14:34:00;;;;;;;;;;;;;;;;;;5017706;28;19929;-72
2023/10/16 14:36:29;;;;;;;;;;;;;;;;;;5018097;28;19932;-72
2023/10/16 14:38:56;;;;;;;;;;;;;;;;;;5017741;28;19933;-72
2023/10/16 14:41:24;;;;;;;;;;;;;;;;;;5017667;28;19925;-72
2023/10/16 14:43:51;;;;;;;;;;;;;;;;;;5017141;28;20016;-72
2023/10/16 14:46:20;;;;;;;;;;;;;;;;;;5016757;28;20438;-71
2023/10/16 14:48:50;;;;;;;;;;;;;;;;;;5017056;28;19926;-72
2023/10/16 14:51:16;;;;;;;;;;;;;;;;;;5017010;28;19925;-73
2023/10/16 14:53:44;;;;;;;;;;;;;;;;;;5016717;28;19926;-73
2023/10/16 14:56:11;;;;;;;;;;;;;;;;;;5016658;28;19976;-73
2023/10/16 14:58:40;;;;;;;;;;;;;;;;;;5016268;28;20466;-73
2023/10/16 15:01:15;;;;;;;;;;;;;;;;;;5016277;28;20346;-73
2023/10/16 15:03:42;;;;;;;;;;;;;;;;;;5016644;28;19926;-73
2023/10/16 15:06:11;;;;;;;;;;;;;;;;;;5016587;28;20374;-73
2023/10/16 15:08:38;;;;;;;;;;;;;;;;;;5016798;28;19949;-73
2023/10/16 15:11:05;;;;;;;;;;;;;;;;;;5017202;28;19948;-72
2023/10/16 15:13:31;;;;;;;;;;;;;;;;;;5016553;28;20405;-73
2023/10/16 15:16:00;;;;;;;;;;;;;;;;;;5015712;28;20299;-73
2023/10/16 15:18:27;;;;;;;;;;;;;;;;;;5016399;28;20012;-76
2023/10/16 15:20:54;;;;;;;;;;;;;;;;;;5016490;28;19925;-76
2023/10/16 15:23:20;;;;;;;;;;;;;;;;;;5016534;28;20413;-73
2023/10/16 15:25:47;;;;;;;;;;;;;;;;;;5016360;28;19925;-75
2023/10/16 15:28:14;;;;;;;;;;;;;;;;;;5016612;28;19925;-75
2023/10/16 15:30:43;;;;;;;;;;;;;;;;;;5016557;28;19925;-76
2023/10/16 15:33:10;;;;;;;;;;;;;;;;;;5016023;28;20397;-76
2023/10/16 15:35:38;;;;;;;;;;;;;;;;;;5016560;28;19997;-76
2023/10/16 15:38:06;;;;;;;;;;;;;;;;;;5016558;28;20397;-75
2023/10/16 15:40:33;;;;;;;;;;;;;;;;;;5016386;28;19926;-75
2023/10/16 15:43:00;;;;;;;;;;;;;;;;;;5015944;28;19937;-75
2023/10/16 15:45:27;;;;;;;;;;;;;;;;;;5015927;28;19925;-75
2023/10/16 15:47:54;;;;;;;;;;;;;;;;;;5015527;28;19933;-75
2023/10/16 15:50:21;;;;;;;;;;;;;;;;;;5016281;28;19961;-76
2023/10/16 15:52:48;;;;;;;;;;;;;;;;;;5017117;28;20346;-75
2023/10/16 15:55:17;;;;;;;;;;;;;;;;;;5016112;28;20036;-75
2023/10/16 15:57:46;;;;;;;;;;;;;;;;;;5015966;28;19929;-75
2023/10/16 16:00:13;;;;;;;;;;;;;;;;;;5016198;28;19925;-75
2023/10/16 16:02:40;;;;;;;;;;;;;;;;;;5016229;28;19949;-76
2023/10/16 16:05:07;;;;;;;;;;;;;;;;;;5016315;28;19932;-76
2023/10/16 16:07:35;;;;;;;;;;;;;;;;;;5016392;28;20359;-76
2023/10/16 16:10:02;;;;;;;;;;;;;;;;;;5015585;28;19932;-76
2023/10/16 16:12:29;;;;;;;;;;;;;;;;;;5015827;28;20387;-76
2023/10/16 16:14:57;;;;;;;;;;;;;;;;;;5015802;28;20351;-76
2023/10/16 16:17:25;;;;;;;;;;;;;;;;;;5015696;28;19925;-76
2023/10/16 16:19:52;;;;;;;;;;;;;;;;;;5016309;28;19933;-75
2023/10/16 16:22:19;;;;;;;;;;;;;;;;;;5015113;28;20028;-76
2023/10/16 16:24:46;;;;;;;;;;;;;;;;;;5014990;28;19925;-76
2023/10/16 16:27:13;;;;;;;;;;;;;;;;;;5014861;28;19933;-76
2023/10/16 16:29:40;;;;;;;;;;;;;;;;;;5015043;28;19933;-76
2023/10/16 16:32:07;;;;;;;;;;;;;;;;;;5014969;28;19930;-76
2023/10/16 16:34:34;;;;;;;;;;;;;;;;;;5014710;28;19925;-76
2023/10/16 16:37:01;;;;;;;;;;;;;;;;;;5014522;28;19929;-76
2023/10/16 16:39:32;;;;;;;;;;;;;;;;;;5014408;28;20019;-76
2023/10/16 16:41:59;;;;;;;;;;;;;;;;;;5014486;28;20379;-76
2023/10/16 16:44:26;;;;;;;;;;;;;;;;;;5014465;28;19926;-76
2023/10/16 16:46:55;;;;;;;;;;;;;;;;;;5015129;28;19925;-77
2023/10/16 16:49:22;;;;;;;;;;;;;;;;;;5014941;28;19925;-75
2023/10/16 16:51:49;;;;;;;;;;;;;;;;;;5014406;28;19932;-75
2023/10/16 16:54:15;;;;;;;;;;;;;;;;;;5014679;28;19925;-75
2023/10/16 16:56:42;;;;;;;;;;;;;;;;;;5015257;28;19926;-76
2023/10/16 16:59:12;;;;;;;;;;;;;;;;;;5015250;28;19933;-75
2023/10/16 17:01:40;;;;;;;;;;;;;;;;;;5016391;28;19925;-76
2023/10/16 17:04:07;;;;;;;;;;;;;;;;;;5015224;28;19926;-76
2023/10/16 17:06:34;;;;;;;;;;;;;;;;;;5015364;28;19925;-76
2023/10/16 17:09:02;;;;;;;;;;;;;;;;;;5015479;28;19933;-77
2023/10/16 17:11:29;;;;;;;;;;;;;;;;;;5014814;28;19925;-75
2023/10/16 17:13:56;;;;;;;;;;;;;;;;;;5015440;28;20024;-76
2023/10/16 17:16:23;;;;;;;;;;;;;;;;;;5015284;28;19925;-76
2023/10/16 17:18:50;;;;;;;;;;;;;;;;;;5014463;28;20302;-77
2023/10/16 17:21:19;;;;;;;;;;;;;;;;;;5014908;28;20387;-76
2023/10/16 17:23:46;;;;;;;;;;;;;;;;;;5014858;28;19925;-77
2023/10/16 17:26:13;;;;;;;;;;;;;;;;;;5015068;28;19925;-74
2023/10/16 17:28:40;;;;;;;;;;;;;;;;;;5018748;28;20098;-73
2023/10/16 17:31:07;;;;;;;;;;;;;;;;;;5014811;28;20395;-73
2023/10/16 17:33:34;;;;;;;;;;;;;;;;;;5018004;28;20000;-73
2023/10/16 17:36:02;;;;;;;;;;;;;;;;;;5019423;28;20430;-73
2023/10/16 17:38:28;;;;;;;;;;;;;;;;;;5018311;28;20371;-73
2023/10/16 17:40:56;;;;;;;;;;;;;;;;;;5019009;28;19925;-74
2023/10/16 17:43:26;;;;;;;;;;;;;;;;;;5018033;28;19925;-74
2023/10/16 17:45:53;;;;;;;;;;;;;;;;;;5018049;28;19925;-74
2023/10/16 17:48:20;;;;;;;;;;;;;;;;;;5017685;28;19926;-74
2023/10/16 17:50:47;;;;;;;;;;;;;;;;;;5018088;28;19926;-74
2023/10/16 17:53:14;;;;;;;;;;;;;;;;;;5018021;28;19932;-75
2023/10/16 17:55:41;;;;;;;;;;;;;;;;;;5018027;28;19930;-74
2023/10/16 17:58:08;;;;;;;;;;;;;;;;;;5018395;28;19948;-75
2023/10/16 18:00:39;;;;;;;;;;;;;;;;;;5017679;28;19932;-75
2023/10/16 18:03:06;;;;;;;;;;;;;;;;;;5017782;28;19925;-74
2023/10/16 18:05:33;;;;;;;;;;;;;;;;;;5017586;28;20378;-73
2023/10/16 18:08:00;;;;;;;;;;;;;;;;;;5017495;28;20517;-73
2023/10/16 18:10:30;;;;;;;;;;;;;;;;;;5017177;28;19925;-74
2023/10/16 18:12:59;;;;;;;;;;;;;;;;;;5017697;28;20028;-74
2023/10/16 18:15:27;;;;;;;;;;;;;;;;;;5017984;28;20023;-72
2023/10/16 18:17:54;;;;;;;;;;;;;;;;;;5018261;28;19925;-72
2023/10/16 18:20:21;;;;;;;;;;;;;;;;;;5018461;28;19937;-73
2023/10/16 18:22:51;;;;;;;;;;;;;;;;;;5018665;28;19948;-73
2023/10/16 18:25:18;;;;;;;;;;;;;;;;;;5018248;28;20019;-72
2023/10/16 18:27:45;;;;;;;;;;;;;;;;;;5017968;28;19933;-74
2023/10/16 18:30:14;;;;;;;;;;;;;;;;;;5017235;28;19926;-74
2023/10/16 18:32:42;;;;;;;;;;;;;;;;;;5017256;28;19929;-73
2023/10/16 18:35:09;;;;;;;;;;;;;;;;;;5017238;28;19933;-73
2023/10/16 18:37:36;;;;;;;;;;;;;;;;;;5016582;28;20008;-73
2023/10/16 18:40:09;;;;;;;;;;;;;;;;;;5017115;28;19972;-73
2023/10/16 18:42:36;;;;;;;;;;;;;;;;;;5017109;28;19931;-74
2023/10/16 18:45:06;;;;;;;;;;;;;;;;;;5016045;28;19932;-73
2023/10/16 18:47:33;;;;;;;;;;;;;;;;;;5016934;28;20405;-73
2023/10/16 18:50:03;;;;;;;;;;;;;;;;;;5016982;28;19954;-73
2023/10/16 18:52:30;;;;;;;;;;;;;;;;;;5016981;28;19933;-73
2023/10/16 18:54:57;;;;;;;;;;;;;;;;;;5017157;28;19925;-73
2023/10/16 18:57:24;;;;;;;;;;;;;;;;;;5018199;28;19926;-73
2023/10/16 18:59:50;;;;;;;;;;;;;;;;;;5018606;28;19925;-73
2023/10/16 19:02:18;;;;;;;;;;;;;;;;;;5017606;28;20375;-74
2023/10/16 19:04:46;;;;;;;;;;;10.20;99.90;;;;;;5017848;28;19932;-73
2023/10/16 19:07:13;;;;;;;;;;;4.50;99.90;;;;;;5017458;28;19926;-74
2023/10/16 19:09:40;;;;;;;;;;;;;;;;;;5016870;28;19925;-75
2023/10/16 19:12:08;;;;;;;;;;;;;;;;;;5017563;28;19933;-74
2023/10/16 19:14:35;;;;;;;;;;;;;;;;;;5017209;28;19925;-74
2023/10/16 19:17:03;;;;;;;;;;;;;;;;;;5016810;28;19929;-74
2023/10/16 19:19:32;;;;;;;;;;;;;;;;;;5017207;28;20395;-74
2023/10/16 19:21:59;;;;;;;;;;;;;;;;;;5017371;28;20322;-76
2023/10/16 19:24:27;;;;;;;;;;;;;;;;;;5016689;28;19933;-75
2023/10/16 19:26:57;;;;;;;;;;;;;;;;;;5016941;28;19932;-75
2023/10/16 19:29:24;;;;;;;;;;;;;;;;;;5016744;28;19987;-74
2023/10/16 19:31:51;;;;;;;;;;;;;;;;;;5016580;28;19929;-74
2023/10/16 19:34:18;;;;;;;;;;;;;;;;;;5016674;28;19932;-75
2023/10/16 19:36:45;;;;;;;;;;;;;;;;;;5016601;28;19925;-75
2023/10/16 19:39:14;;;;;;;;;;;;;;;;;;5016537;28;19941;-75
2023/10/16 19:41:45;;;;;;;;;;;;;;;;;;5016814;28;20433;-76
2023/10/16 19:44:12;;;;;;;;;;;;;;;;;;5016948;28;19936;-76
2023/10/16 19:46:39;;;;;;;;;;;;;;;;;;5016345;28;19925;-76
2023/10/16 19:49:06;;;;;;;;;;;;;;;;;;5016835;28;19930;-76
2023/10/16 19:51:33;;;;;;;;;;;;;;;;;;5016429;28;19940;-75
2023/10/16 19:54:01;;;;;;;;;;;;;;;;;;5016139;28;19926;-75
2023/10/16 19:56:29;;;;;;;;;;;;;;;;;;5015402;28;19929;-76
2023/10/16 19:58:57;;;;;;;;;;;;;;;;;;5015794;28;19980;-76
2023/10/16 20:01:24;;;;;;;;;;;;;;;;;;5015119;28;20365;-76
2023/10/16 20:03:52;;;;;;;;;;;;;;;;;;5015327;28;19936;-75
2023/10/16 20:06:19;;;;;;;;;;;;;;;;;;5015251;28;19987;-75
2023/10/16 20:08:46;;;;;;;;;;;;;;;;;;5026793;28;19925;-74
2023/10/16 20:11:13;;;;;;;;;;;;;;;;;;5050262;22;20313;-77
2023/10/16 20:13:41;;;;;;;;;;;;;;;;;;5015046;28;19995;-76
2023/10/16 20:16:11;;;;;;;;;;;4.30;99.90;;;;;;5014911;28;19972;-76
2023/10/16 20:18:40;;;;;;;;;;;4.10;99.90;;;;;;5016461;28;19929;-76
2023/10/16 20:21:11;;;;;;;;;;;4.10;99.90;;;;;;5014725;28;19931;-76
2023/10/16 20:23:39;;;;;;;;;;;4.10;99.90;;;;;;5014684;28;19933;-77
2023/10/16 20:26:13;;;;;;;;;;;4.00;99.90;;;;;;5014760;28;19925;-76
2023/10/16 20:28:40;;;;;;;;;;;4.00;99.90;;;;;;5014392;28;19926;-77
2023/10/16 20:31:06;;;;;;;;;;;4.00;99.90;;;;;;5014453;28;19925;-76
2023/10/16 20:33:36;;;;;;;;;;;4.00;99.90;;;;;;5014452;28;19925;-76
2023/10/16 20:36:03;;;;;;;;;;;4.00;99.90;;;;;;5014471;28;19933;-76
2023/10/16 20:38:30;;;;;;;;;;;;;;;;;;5014124;28;20298;-76
2023/10/16 20:40:57;;;;;;;;;;;;;;;;;;5014134;28;19931;-76
2023/10/16 20:43:27;;;;;;;;;;;;;;;;;;5014467;28;19948;-76
2023/10/16 20:45:53;;;;;;;;;;;;;;;;;;5014598;28;19932;-77
2023/10/16 20:48:20;;;;;;;;;;;;;;;;;;5014440;28;19930;-77
2023/10/16 20:50:48;;;;;;;;;;;;;;;;;;5014294;28;20416;-78
2023/10/16 20:53:15;;;;;;;;;;;;;;;;;;5014381;28;19988;-76
2023/10/16 20:55:42;;;;;;;;;;;;;;;;;;5014332;28;19932;-76
2023/10/16 20:58:11;;;;;;;;;;;;;;;;;;5014219;28;19932;-77
2023/10/16 21:00:38;;;;;;;;;;;;;;;;;;5014189;28;19925;-76
2023/10/16 21:03:05;;;;;;;;;;;;;;;;;;5014407;28;19949;-77
2023/10/16 21:05:32;;;;;;;;;;;;;;;;;;5014447;28;19926;-76
2023/10/16 21:07:59;;;;;;;;;;;;;;;;;;5014080;28;20012;-77
2023/10/16 21:10:26;;;;;;;;;;;;;;;;;;5014072;28;19976;-76
2023/10/16 21:12:53;;;;;;;;;;;;;;;;;;5018019;28;19932;-76
2023/10/16 21:15:20;;;;;;;;;;;;;;;;;;5023066;28;19936;-77
2023/10/16 21:17:47;;;;;;;;;;;;;;;;;;5021946;28;19925;-77
2023/10/16 21:20:14;;;;;;;;;;;;;;;;;;5014010;28;20378;-78
2023/10/16 21:22:43;;;;;;;;;;;;;;;;;;5014121;28;20379;-77
2023/10/16 21:25:10;;;;;;;;;;;;;;;;;;5015094;28;20362;-78
2023/10/16 21:27:38;;;;;;;;;;;;;;;;;;5014745;28;19925;-78
2023/10/16 21:30:05;;;;;;;;;;;;;;;;;;5014721;28;19973;-77
2023/10/16 21:32:32;;;;;;;;;;;;;;;;;;5014737;28;19930;-77
2023/10/16 21:35:00;;;;;;;;;;;;;;;;;;5014217;28;19948;-77
2023/10/16 21:37:29;;;;;;;;;;;;;;;;;;5014119;28;19932;-77
2023/10/16 21:39:57;;;;;;;;;;;;;;;;;;5014619;28;19925;-78
2023/10/16 21:42:24;;;;;;;;;;;;;;;;;;5014613;28;19933;-78
2023/10/16 21:44:51;;;;;;;;;;;;;;;;;;5014410;28;19930;-78
2023/10/16 21:47:19;;;;;;;;;;;;;;;;;;5014727;28;19925;-78
2023/10/16 21:49:46;;;;;;;;;;;;;;;;;;5013845;28;19983;-76
2023/10/16 21:52:13;;;;;;;;;;;;;;;;;;5013719;28;19932;-75
2023/10/16 21:54:41;;;;;;;;;;;;;;;;;;5013438;28;20298;-75
2023/10/16 21:57:10;;;;;;;;;;;;;;;;;;5014020;28;19925;-75
2023/10/16 21:59:37;;;;;;;;;;;;;;;;;;5014608;28;19925;-76
2023/10/16 22:02:04;;;;;;;;;;;;;;;;;;5016954;28;20386;-75
2023/10/16 22:04:31;;;;;;;;;;;;;;;;;;5018615;28;19929;-75
